createdAt,value
2018-05-06T00:01:15.946Z,"    0"
2018-05-06T00:06:11.828Z,"    0"
2018-05-06T00:11:11.991Z,"    0"
2018-05-06T00:16:07.907Z,"    0"
2018-05-06T00:21:03.659Z,"    0"
2018-05-06T00:25:59.404Z,"    0"
2018-05-06T00:30:56.094Z,"    0"
2018-05-06T00:35:56.502Z,"    0"
2018-05-06T00:40:51.221Z,"    0"
2018-05-06T00:45:47.017Z,"    0"
2018-05-06T00:50:47.664Z,"    0"
2018-05-06T00:55:46.287Z,"    0"
2018-05-06T01:00:41.430Z,"    0"
2018-05-06T01:05:37.093Z,"    0"
2018-05-06T01:10:32.932Z,"    0"
2018-05-06T01:15:32.699Z,"    0"
2018-05-06T01:20:27.585Z,"    0"
2018-05-06T01:25:23.465Z,"    0"
2018-05-06T01:30:19.353Z,"    0"
2018-05-06T01:35:16.085Z,"    0"
2018-05-06T01:40:11.556Z,"    0"
2018-05-06T01:45:07.310Z,"    0"
2018-05-06T01:50:08.406Z,"    0"
2018-05-06T01:55:03.168Z,"    0"
2018-05-06T01:59:59.815Z,"    0"
2018-05-06T02:04:56.574Z,"    0"
2018-05-06T02:09:51.928Z,"    0"
2018-05-06T02:14:48.675Z,"    0"
2018-05-06T02:19:45.083Z,"    0"
2018-05-06T02:24:40.311Z,"    0"
2018-05-06T02:29:39.700Z,"    0"
2018-05-06T02:34:34.489Z,"    0"
2018-05-06T02:39:31.147Z,"    0"
2018-05-06T02:44:27.558Z,"    0"
2018-05-06T02:49:23.199Z,"    0"
2018-05-06T02:54:22.825Z,"    0"
2018-05-06T02:59:17.557Z,"    0"
2018-05-06T03:04:13.252Z,"    0"
2018-05-06T03:09:09.064Z,"    0"
2018-05-06T03:14:05.837Z,"    0"
2018-05-06T03:19:01.339Z,"    4"
2018-05-06T03:24:00.963Z,"    8"
2018-05-06T03:28:55.723Z,"   20"
2018-05-06T03:33:51.379Z,"   32"
2018-05-06T03:38:47.045Z,"   60"
2018-05-06T03:43:47.725Z,"   96"
2018-05-06T03:48:46.237Z,"  152"
2018-05-06T03:53:42.634Z,"  228"
2018-05-06T03:58:38.371Z,"  320"
2018-05-06T04:03:38.042Z,"  420"
2018-05-06T04:08:33.044Z,"  532"
2018-05-06T04:13:29.050Z,"  648"
2018-05-06T04:18:28.562Z,"  760"
2018-05-06T04:23:23.462Z,"  876"
2018-05-06T04:28:19.965Z," 1016"
2018-05-06T04:33:15.522Z," 1492"
2018-05-06T04:38:11.942Z," 1992"
2018-05-06T04:43:09.088Z," 1816"
2018-05-06T04:48:04.923Z," 1956"
2018-05-06T04:53:04.655Z," 2028"
2018-05-06T04:57:59.716Z," 2044"
2018-05-06T05:02:55.847Z," 2068"
2018-05-06T05:07:56.596Z," 2208"
2018-05-06T05:12:55.310Z," 2384"
2018-05-06T05:17:55.263Z," 2156"
2018-05-06T05:22:53.901Z," 2124"
2018-05-06T05:27:48.884Z," 2168"
2018-05-06T05:32:44.643Z," 2256"
2018-05-06T05:37:40.379Z," 2388"
2018-05-06T05:42:36.807Z," 2452"
2018-05-06T05:47:33.712Z," 2452"
2018-05-06T05:52:32.976Z," 2560"
2018-05-06T05:57:32.342Z," 2436"
2018-05-06T06:02:31.203Z," 2384"
2018-05-06T06:07:30.178Z," 2612"
2018-05-06T06:12:26.024Z," 2348"
2018-05-06T06:17:26.133Z," 3320"
2018-05-06T06:22:21.103Z," 2292"
2018-05-06T06:27:21.607Z," 2328"
2018-05-06T06:32:16.802Z," 2652"
2018-05-06T06:37:13.568Z," 2736"
2018-05-06T06:42:14.395Z," 5856"
2018-05-06T06:47:09.588Z," 3528"
2018-05-06T06:52:05.275Z," 2468"
2018-05-06T06:57:04.818Z," 2496"
2018-05-06T07:01:59.673Z," 2516"
2018-05-06T07:06:56.098Z," 4940"
2018-05-06T07:11:56.390Z," 3224"
2018-05-06T07:16:52.568Z," 2680"
2018-05-06T07:21:48.816Z," 3560"
2018-05-06T07:26:48.610Z," 5712"
2018-05-06T07:31:47.687Z," 2880"
2018-05-06T07:36:42.757Z," 7948"
2018-05-06T07:41:39.630Z,29696
2018-05-06T07:46:41.743Z,26880
2018-05-06T07:51:40.135Z,63680
2018-05-06T07:56:38.294Z,56832
2018-05-06T08:01:37.124Z,64896
2018-05-06T08:06:34.514Z,50752
2018-05-06T08:11:31.664Z,63968
2018-05-06T08:16:28.595Z,60416
2018-05-06T08:21:24.541Z,68256
2018-05-06T08:26:24.996Z,67712
2018-05-06T08:31:20.158Z,55456
2018-05-06T08:36:21.014Z,65952
2018-05-06T08:41:18.323Z,56352
2018-05-06T08:46:12.638Z,33728
2018-05-06T08:51:11.096Z," 8580"
2018-05-06T08:56:05.867Z,21056
2018-05-06T09:01:01.068Z," 5636"
2018-05-06T09:06:00.770Z," 3920"
2018-05-06T09:10:58.498Z," 6552"
2018-05-06T09:15:53.883Z,21184
2018-05-06T09:20:52.203Z,68576
2018-05-06T09:25:50.669Z,61312
2018-05-06T09:30:47.996Z,63520
2018-05-06T09:35:49.244Z,79200
2018-05-06T09:40:45.157Z,67936
2018-05-06T09:45:41.490Z,82816
2018-05-06T09:50:38.029Z,74240
2018-05-06T09:55:38.306Z,80672
2018-05-06T10:00:33.773Z,85760
2018-05-06T10:05:30.280Z,81248
2018-05-06T10:10:30.333Z,71904
2018-05-06T10:15:29.855Z,97632
2018-05-06T10:20:25.321Z,65984
2018-05-06T10:25:21.368Z,79712
2018-05-06T10:30:17.853Z,75680
2018-05-06T10:35:14.244Z,99712
2018-05-06T10:40:10.820Z,89504
2018-05-06T10:45:11.421Z,80672
2018-05-06T10:50:06.677Z,69152
2018-05-06T10:55:03.583Z,63712
2018-05-06T11:00:04.123Z,78464
2018-05-06T11:05:00.066Z,93728
2018-05-06T11:09:56.480Z,97696
2018-05-06T11:14:52.753Z,74880
2018-05-06T11:19:49.276Z,93024
2018-05-06T11:24:45.850Z,96768
2018-05-06T11:29:46.030Z,100160
2018-05-06T11:34:41.376Z,107680
2018-05-06T11:39:37.594Z,92928
2018-05-06T11:44:35.288Z,79552
2018-05-06T11:49:32.228Z,91616
2018-05-06T11:54:31.655Z,98272
2018-05-06T11:59:27.759Z,104544
2018-05-06T12:04:23.237Z,98656
2018-05-06T12:09:20.491Z,92512
2018-05-06T12:14:16.437Z,85248
2018-05-06T12:19:12.775Z,83936
2018-05-06T12:24:09.740Z,63872
2018-05-06T12:29:09.403Z,50624
2018-05-06T12:34:04.174Z,64256
2018-05-06T12:38:59.876Z,23392
2018-05-06T12:43:52.642Z," 4424"
2018-05-06T12:48:47.067Z,39360
2018-05-06T12:53:42.513Z,42240
2018-05-06T12:58:39.944Z,102432
2018-05-06T13:03:42.168Z,110496
2018-05-06T13:08:41.489Z,116608
2018-05-06T13:13:40.850Z,79488
2018-05-06T13:18:36.022Z,72800
2018-05-06T13:23:32.041Z,68832
2018-05-06T13:28:28.778Z,74144
2018-05-06T13:33:24.795Z,65312
2018-05-06T13:38:23.468Z,21536
2018-05-06T13:43:17.299Z,13172
2018-05-06T13:48:13.099Z," 3000"
2018-05-06T13:53:07.495Z," 3224"
2018-05-06T13:58:04.345Z," 2800"
2018-05-06T14:03:03.426Z," 2740"
2018-05-06T14:07:59.155Z," 2664"
2018-05-06T14:12:54.580Z," 2676"
2018-05-06T14:17:50.933Z," 2740"
2018-05-06T14:22:47.090Z," 2756"
2018-05-06T14:27:43.082Z," 2632"
2018-05-06T14:32:38.896Z," 2600"
2018-05-06T14:37:36.364Z," 2572"
2018-05-06T14:42:32.080Z," 2504"
2018-05-06T14:47:31.698Z," 2452"
2018-05-06T14:52:27.915Z," 2376"
2018-05-06T14:57:23.854Z," 2336"
2018-05-06T15:02:19.643Z," 2288"
2018-05-06T15:07:19.544Z," 2276"
2018-05-06T15:12:14.488Z," 2268"
2018-05-06T15:17:10.381Z," 2220"
2018-05-06T15:22:06.489Z," 2192"
2018-05-06T15:27:02.715Z," 2160"
2018-05-06T15:31:59.869Z," 2164"
2018-05-06T15:36:55.592Z," 2128"
2018-05-06T15:41:52.144Z," 2104"
2018-05-06T15:46:52.016Z," 2072"
2018-05-06T15:51:51.961Z," 2048"
2018-05-06T15:56:46.712Z," 2032"
2018-05-06T16:01:42.493Z," 2000"
2018-05-06T16:06:38.506Z," 1976"
2018-05-06T16:11:34.470Z," 1956"
2018-05-06T16:16:34.795Z," 1936"
2018-05-06T16:21:30.072Z," 1912"
2018-05-06T16:26:30.930Z," 1888"
2018-05-06T16:31:25.665Z," 1864"
2018-05-06T16:36:21.593Z," 1840"
2018-05-06T16:41:17.447Z," 1812"
2018-05-06T16:46:14.377Z," 1784"
2018-05-06T16:51:10.047Z," 1756"
2018-05-06T16:56:06.036Z," 1728"
2018-05-06T17:01:02.928Z," 1688"
2018-05-06T17:05:58.593Z," 1652"
2018-05-06T17:10:54.600Z," 1616"
2018-05-06T17:15:50.423Z," 1576"
2018-05-06T17:20:47.242Z," 1536"
2018-05-06T17:25:42.953Z," 1500"
2018-05-06T17:30:38.954Z," 1460"
2018-05-06T17:35:34.964Z," 1420"
2018-05-06T17:40:30.968Z," 1372"
2018-05-06T17:45:30.625Z," 1320"
2018-05-06T17:50:26.617Z," 1264"
2018-05-06T17:55:21.973Z," 1208"
2018-05-06T18:00:19.099Z," 1148"
2018-05-06T18:05:18.432Z," 1080"
2018-05-06T18:10:14.301Z," 1012"
2018-05-06T18:15:09.986Z,"  932"
2018-05-06T18:20:07.097Z,"  844"
2018-05-06T18:25:03.501Z,"  756"
2018-05-06T18:30:02.955Z,"  664"
2018-05-06T18:34:57.803Z,"  580"
2018-05-06T18:39:53.494Z,"  484"
2018-05-06T18:44:49.344Z,"  396"
2018-05-06T18:49:45.145Z,"  312"
2018-05-06T18:54:42.038Z,"  228"
2018-05-06T18:59:41.380Z,"  164"
2018-05-06T19:04:40.177Z,"  108"
2018-05-06T19:09:34.879Z,"   68"
2018-05-06T19:14:30.726Z,"   36"
2018-05-06T19:19:26.567Z,"   20"
2018-05-06T19:24:26.975Z,"   12"
2018-05-06T19:29:26.544Z,"    4"
2018-05-06T19:34:22.294Z,"    4"
2018-05-06T19:39:17.690Z,"    0"
2018-05-06T19:44:13.350Z,"    0"
2018-05-06T19:49:09.665Z,"    0"
2018-05-06T19:54:10.409Z,"    0"
2018-05-06T19:59:09.190Z,"    0"
2018-05-06T20:04:04.021Z,"    0"
2018-05-06T20:09:03.554Z,"    0"
2018-05-06T20:13:58.532Z,"    0"
2018-05-06T20:18:58.557Z,"    0"
2018-05-06T20:23:54.471Z,"    0"
2018-05-06T20:28:50.585Z,"    0"
2018-05-06T20:33:46.533Z,"    0"
2018-05-06T20:38:42.180Z,"    0"
2018-05-06T20:43:39.127Z,"    0"
2018-05-06T20:48:34.498Z,"    0"
2018-05-06T20:53:34.361Z,"    0"
2018-05-06T20:58:29.051Z,"    0"
2018-05-06T21:03:28.899Z,"    0"
2018-05-06T21:08:23.933Z,"    0"
2018-05-06T21:13:19.903Z,"    0"
2018-05-06T21:18:16.226Z,"    0"
2018-05-06T21:23:15.483Z,"    0"
2018-05-06T21:28:14.302Z,"    0"
2018-05-06T21:33:09.394Z,"    0"
2018-05-06T21:38:06.267Z,"    0"
2018-05-06T21:43:02.737Z,"    0"
2018-05-06T21:47:59.303Z,"    0"
2018-05-06T21:52:55.241Z,"    0"
2018-05-06T21:57:55.935Z,"    0"
2018-05-06T22:02:50.631Z,"    0"
2018-05-06T22:07:46.479Z,"    0"
2018-05-06T22:12:42.730Z,"    0"
2018-05-06T22:17:38.394Z,"    0"
2018-05-06T22:22:38.785Z,"    0"
2018-05-06T22:27:34.431Z,"    0"
2018-05-06T22:32:31.258Z,"    0"
2018-05-06T22:37:30.739Z,"    0"
2018-05-06T22:42:25.653Z,"    0"
2018-05-06T22:47:25.341Z,"    0"
2018-05-06T22:52:24.385Z,"    0"
2018-05-06T22:57:23.262Z,"    0"
2018-05-06T23:02:18.683Z,"    0"
2018-05-06T23:07:14.569Z,"    0"
2018-05-06T23:12:11.301Z,"    0"
2018-05-06T23:17:10.837Z,"    0"
2018-05-06T23:22:09.955Z,"    0"
2018-05-06T23:27:04.759Z,"    0"
2018-05-06T23:32:01.941Z,"    0"
2018-05-06T23:36:58.326Z,"    0"
2018-05-06T23:41:54.152Z,"    0"
2018-05-06T23:46:50.188Z,"    0"
2018-05-06T23:51:45.904Z,"    0"
2018-05-06T23:56:42.138Z,"    0"
